createdAt,value
2019-04-25T00:03:49.183Z,17.12
2019-04-25T00:08:54.706Z,16.90
2019-04-25T00:14:01.585Z,16.84
2019-04-25T00:19:08.371Z,16.71
2019-04-25T00:24:32.081Z,16.66
2019-04-25T00:29:37.571Z,16.60
2019-04-25T00:34:44.328Z,16.58
2019-04-25T00:39:51.606Z,16.57
2019-04-25T00:44:57.064Z,16.46
2019-04-25T00:50:02.472Z,16.33
2019-04-25T00:55:07.628Z,16.33
2019-04-25T01:00:32.760Z,16.34
2019-04-25T01:05:38.086Z,16.36
2019-04-25T01:10:44.289Z,16.37
2019-04-25T01:15:49.508Z,16.29
2019-04-25T01:20:55.477Z,16.16
2019-04-25T01:26:03.222Z,16.03
2019-04-25T01:31:11.037Z,15.82
2019-04-25T01:36:18.111Z,15.86
2019-04-25T01:41:24.881Z,15.83
2019-04-25T01:46:31.771Z,15.79
2019-04-25T01:51:38.161Z,15.65
2019-04-25T01:56:44.298Z,15.70
2019-04-25T02:01:50.943Z,15.55
2019-04-25T02:06:57.040Z,15.57
2019-04-25T02:12:15.961Z,15.45
2019-04-25T02:17:21.425Z,15.33
2019-04-25T02:22:26.666Z,15.28
2019-04-25T02:27:31.995Z,15.23
2019-04-25T02:32:37.428Z,15.16
2019-04-25T02:37:45.084Z,15.01
2019-04-25T02:42:50.053Z,15.06
2019-04-25T02:48:14.198Z,15.02
2019-04-25T02:53:34.423Z,15.01
2019-04-25T02:58:40.236Z,14.96
2019-04-25T03:03:45.339Z,14.88
2019-04-25T03:08:50.913Z,14.86
2019-04-25T03:13:57.772Z,14.88
2019-04-25T03:19:13.996Z,14.82
2019-04-25T03:24:18.857Z,14.91
2019-04-25T03:29:24.768Z,14.73
2019-04-25T03:34:30.117Z,14.67
2019-04-25T03:39:35.507Z,14.78
2019-04-25T03:44:40.743Z,14.58
2019-04-25T03:49:45.936Z,14.59
2019-04-25T03:54:51.053Z,14.73
2019-04-25T03:59:56.194Z,14.70
2019-04-25T04:05:01.441Z,14.64
2019-04-25T04:10:08.045Z,14.50
2019-04-25T04:15:14.943Z,14.67
2019-04-25T04:20:28.140Z,14.71
2019-04-25T04:25:33.687Z,14.61
2019-04-25T04:30:38.926Z,14.57
2019-04-25T04:35:44.286Z,14.61
2019-04-25T04:40:49.409Z,14.67
2019-04-25T04:45:54.571Z,14.70
2019-04-25T04:50:59.691Z,14.79
2019-04-25T04:56:05.223Z,14.93
2019-04-25T05:01:11.107Z,14.91
2019-04-25T05:06:24.872Z,14.95
2019-04-25T05:11:30.504Z,15.05
2019-04-25T05:16:36.201Z,15.24
2019-04-25T05:21:41.362Z,15.17
2019-04-25T05:26:46.571Z,15.21
2019-04-25T05:31:54.268Z,15.29
2019-04-25T05:36:59.634Z,15.28
2019-04-25T05:42:09.458Z,15.50
2019-04-25T05:47:15.906Z,15.73
2019-04-25T05:52:21.971Z,15.79
2019-04-25T05:57:27.171Z,15.67
2019-04-25T06:02:34.030Z,15.74
2019-04-25T06:07:39.298Z,15.91
2019-04-25T06:13:04.764Z,15.89
2019-04-25T06:18:27.773Z,16.04
2019-04-25T06:23:50.563Z,16.06
2019-04-25T06:28:59.486Z,16.15
2019-04-25T06:34:04.542Z,16.30
2019-04-25T06:39:10.450Z,16.41
2019-04-25T06:44:17.341Z,16.24
2019-04-25T06:49:27.765Z,16.55
2019-04-25T06:54:33.563Z,16.55
2019-04-25T06:59:41.569Z,16.72
2019-04-25T07:04:47.378Z,16.97
2019-04-25T07:09:53.495Z,17.16
2019-04-25T07:14:58.813Z,17.20
2019-04-25T07:20:07.270Z,17.42
2019-04-25T07:25:16.316Z,17.59
2019-04-25T07:30:31.233Z,17.85
2019-04-25T07:35:31.228Z,17.86
2019-04-25T07:40:36.500Z,18.04
2019-04-25T07:45:43.475Z,18.29
2019-04-25T07:50:49.681Z,18.61
2019-04-25T07:55:55.404Z,18.59
2019-04-25T08:01:00.685Z,18.80
2019-04-25T08:06:06.255Z,19.11
2019-04-25T08:11:14.032Z,19.20
2019-04-25T08:16:21.355Z,19.36
2019-04-25T08:21:26.587Z,19.51
2019-04-25T08:26:34.964Z,19.68
2019-04-25T08:31:39.679Z,19.77
2019-04-25T08:36:45.782Z,19.86
2019-04-25T08:41:51.140Z,20.13
2019-04-25T08:46:56.439Z,20.23
2019-04-25T08:52:04.100Z,20.25
2019-04-25T08:57:15.084Z,20.43
2019-04-25T09:02:32.389Z,20.75
2019-04-25T09:07:39.036Z,21.02
2019-04-25T09:12:45.870Z,21.32
2019-04-25T09:17:51.302Z,21.36
2019-04-25T09:22:57.616Z,21.71
2019-04-25T09:28:04.399Z,21.91
2019-04-25T09:33:09.737Z,22.06
2019-04-25T09:38:15.051Z,22.23
2019-04-25T09:43:20.204Z,22.63
2019-04-25T09:48:46.888Z,22.64
2019-04-25T09:53:54.159Z,22.90
2019-04-25T09:59:01.417Z,23.03
2019-04-25T10:04:07.186Z,23.15
2019-04-25T10:09:13.542Z,23.42
2019-04-25T10:14:34.192Z,23.70
2019-04-25T10:19:40.043Z,23.79
2019-04-25T10:24:58.431Z,23.91
2019-04-25T10:29:56.922Z,23.91
2019-04-25T10:35:00.322Z,24.19
2019-04-25T10:40:08.700Z,24.09
2019-04-25T10:45:23.333Z,24.44
2019-04-25T10:50:23.843Z,24.71
2019-04-25T10:55:29.279Z,24.80
2019-04-25T11:00:39.815Z,24.78
2019-04-25T11:05:46.136Z,25.13
2019-04-25T11:10:53.785Z,25.11
2019-04-25T11:15:59.400Z,25.27
2019-04-25T11:21:06.027Z,25.41
2019-04-25T11:26:11.749Z,25.52
2019-04-25T11:31:18.591Z,25.69
2019-04-25T11:36:24.988Z,25.75
2019-04-25T11:41:30.386Z,26.10
2019-04-25T11:46:35.551Z,26.02
2019-04-25T11:51:41.802Z,26.36
2019-04-25T11:56:48.615Z,26.18
2019-04-25T12:01:57.327Z,26.53
2019-04-25T12:07:03.917Z,26.93
2019-04-25T12:12:08.945Z,27.13
2019-04-25T12:17:14.377Z,26.69
2019-04-25T12:22:19.809Z,27.34
2019-04-25T12:27:26.338Z,27.68
2019-04-25T12:32:31.643Z,27.67
2019-04-25T12:37:36.924Z,27.41
2019-04-25T12:42:42.404Z,27.98
2019-04-25T12:47:49.079Z,27.52
2019-04-25T12:52:55.057Z,27.24
2019-04-25T12:58:01.221Z,27.11
2019-04-25T13:03:07.074Z,26.66
2019-04-25T13:08:14.190Z,27.31
2019-04-25T13:13:20.097Z,27.54
2019-04-25T13:18:25.206Z,27.51
2019-04-25T13:23:31.944Z,27.57
2019-04-25T13:28:38.956Z,27.64
2019-04-25T13:33:45.652Z,29.26
2019-04-25T13:38:50.974Z,29.00
2019-04-25T13:43:57.742Z,30.41
2019-04-25T13:49:04.300Z,30.62
2019-04-25T13:54:10.319Z,31.14
2019-04-25T13:59:15.734Z,29.76
2019-04-25T14:04:22.294Z,31.38
2019-04-25T14:09:29.214Z,31.33
2019-04-25T14:14:36.088Z,32.38
2019-04-25T14:19:44.269Z,31.31
2019-04-25T14:24:49.950Z,31.72
2019-04-25T14:29:56.169Z,30.66
2019-04-25T14:35:01.362Z,30.88
2019-04-25T14:40:06.967Z,31.49
2019-04-25T14:45:12.476Z,32.52
2019-04-25T14:50:17.687Z,32.44
2019-04-25T14:55:42.572Z,32.90
2019-04-25T15:00:49.601Z,32.59
2019-04-25T15:05:54.900Z,32.67
2019-04-25T15:11:00.140Z,32.25
2019-04-25T15:16:05.344Z,31.94
2019-04-25T15:21:10.658Z,32.99
2019-04-25T15:26:15.923Z,31.67
2019-04-25T15:31:21.349Z,30.53
2019-04-25T15:36:31.301Z,29.08
2019-04-25T15:41:44.434Z,27.89
2019-04-25T15:46:51.190Z,28.25
2019-04-25T15:51:56.447Z,29.65
2019-04-25T15:57:01.643Z,30.77
2019-04-25T16:02:08.777Z,30.63
2019-04-25T16:07:14.200Z,28.67
2019-04-25T16:12:19.603Z,27.39
2019-04-25T16:17:27.096Z,27.13
2019-04-25T16:22:32.449Z,26.96
2019-04-25T16:27:37.715Z,26.32
2019-04-25T16:32:43.059Z,26.30
2019-04-25T16:37:48.314Z,26.32
2019-04-25T16:42:53.647Z,25.95
2019-04-25T16:47:59.028Z,26.03
2019-04-25T16:53:04.945Z,25.83
2019-04-25T16:58:10.432Z,25.87
2019-04-25T17:03:17.138Z,25.68
2019-04-25T17:08:22.648Z,25.67
2019-04-25T17:13:30.745Z,25.55
2019-04-25T17:18:47.073Z,25.47
2019-04-25T17:23:52.298Z,25.37
2019-04-25T17:28:59.317Z,25.22
2019-04-25T17:34:19.682Z,25.16
2019-04-25T17:39:26.590Z,24.92
2019-04-25T17:44:32.793Z,24.55
2019-04-25T17:49:38.167Z,23.56
2019-04-25T17:54:43.428Z,23.29
2019-04-25T17:59:48.599Z,22.75
2019-04-25T18:04:54.017Z,22.53
2019-04-25T18:09:59.147Z,22.22
2019-04-25T18:15:07.727Z,21.89
2019-04-25T18:20:16.106Z,21.76
2019-04-25T18:25:38.923Z,21.49
2019-04-25T18:30:45.533Z,21.42
2019-04-25T18:35:55.460Z,21.24
2019-04-25T18:41:05.202Z,21.23
2019-04-25T18:46:12.044Z,21.01
2019-04-25T18:51:17.436Z,20.95
2019-04-25T18:56:27.533Z,20.74
2019-04-25T19:01:43.813Z,20.77
2019-04-25T19:06:55.994Z,20.67
2019-04-25T19:11:56.015Z,20.65
2019-04-25T19:17:01.357Z,20.56
2019-04-25T19:22:06.813Z,20.52
2019-04-25T19:27:23.177Z,20.35
2019-04-25T19:32:19.012Z,20.23
2019-04-25T19:37:24.579Z,20.07
2019-04-25T19:42:31.777Z,20.06
2019-04-25T19:47:37.097Z,19.93
2019-04-25T19:52:43.732Z,19.89
2019-04-25T19:57:50.306Z,19.76
2019-04-25T20:03:06.495Z,19.66
2019-04-25T20:08:29.817Z,19.46
2019-04-25T20:13:35.316Z,19.33
2019-04-25T20:18:40.609Z,19.11
2019-04-25T20:23:46.470Z,19.04
2019-04-25T20:28:51.962Z,18.95
2019-04-25T20:34:05.248Z,18.78
2019-04-25T20:39:07.187Z,18.93
2019-04-25T20:44:15.009Z,18.78
2019-04-25T20:49:20.187Z,18.75
2019-04-25T20:54:25.825Z,18.49
2019-04-25T20:59:31.454Z,18.50
2019-04-25T21:04:40.231Z,18.49
2019-04-25T21:09:45.410Z,18.55
2019-04-25T21:15:00.450Z,18.39
2019-04-25T21:20:10.888Z,18.23
2019-04-25T21:25:17.372Z,18.10
2019-04-25T21:30:22.689Z,18.23
2019-04-25T21:35:27.957Z,18.10
2019-04-25T21:40:44.367Z,18.10
2019-04-25T21:45:51.894Z,18.03
2019-04-25T21:50:59.726Z,17.89
2019-04-25T21:56:04.959Z,17.99
2019-04-25T22:01:11.729Z,17.72
2019-04-25T22:06:17.881Z,17.63
2019-04-25T22:11:23.295Z,17.52
2019-04-25T22:16:29.023Z,17.38
2019-04-25T22:21:38.277Z,17.29
2019-04-25T22:26:41.892Z,17.23
2019-04-25T22:31:49.357Z,17.34
2019-04-25T22:36:54.563Z,17.23
2019-04-25T22:42:00.937Z,17.27
2019-04-25T22:47:08.332Z,17.22
2019-04-25T22:52:13.587Z,17.17
2019-04-25T22:57:18.851Z,17.06
2019-04-25T23:02:37.924Z,16.90
2019-04-25T23:07:43.118Z,17.01
2019-04-25T23:12:48.943Z,17.01
2019-04-25T23:17:54.160Z,16.81
2019-04-25T23:22:59.455Z,16.88
2019-04-25T23:28:12.456Z,16.80
2019-04-25T23:33:18.154Z,16.79
2019-04-25T23:38:23.724Z,16.74
2019-04-25T23:43:29.120Z,16.65
2019-04-25T23:48:34.276Z,16.56
2019-04-25T23:53:39.595Z,16.60
2019-04-25T23:58:44.925Z,16.57
